sensor_id;sensor_type;location;lat;lon;timestamp;temperature;humidity
76384;SHT30;65204;48.606;7.598;2023-07-13T00:00:27;26.03;43.68
76384;SHT30;65204;48.606;7.598;2023-07-13T00:00:57;26.03;43.80
76384;SHT30;65204;48.606;7.598;2023-07-13T00:01:29;25.97;43.89
76384;SHT30;65204;48.606;7.598;2023-07-13T00:01:59;25.96;43.94
76384;SHT30;65204;48.606;7.598;2023-07-13T00:02:30;25.96;44.04
76384;SHT30;65204;48.606;7.598;2023-07-13T00:03:00;25.93;44.01
76384;SHT30;65204;48.606;7.598;2023-07-13T00:03:30;25.93;44.09
76384;SHT30;65204;48.606;7.598;2023-07-13T00:04:05;25.89;44.12
76384;SHT30;65204;48.606;7.598;2023-07-13T00:04:36;25.92;44.12
76384;SHT30;65204;48.606;7.598;2023-07-13T00:05:06;25.90;44.12
76384;SHT30;65204;48.606;7.598;2023-07-13T00:05:37;25.87;44.15
76384;SHT30;65204;48.606;7.598;2023-07-13T00:06:08;25.83;44.22
76384;SHT30;65204;48.606;7.598;2023-07-13T00:06:38;25.83;44.21
76384;SHT30;65204;48.606;7.598;2023-07-13T00:07:09;25.79;44.30
76384;SHT30;65204;48.606;7.598;2023-07-13T00:07:39;25.77;44.35
76384;SHT30;65204;48.606;7.598;2023-07-13T00:08:09;25.79;44.41
76384;SHT30;65204;48.606;7.598;2023-07-13T00:08:42;25.77;44.42
76384;SHT30;65204;48.606;7.598;2023-07-13T00:09:14;25.76;44.40
76384;SHT30;65204;48.606;7.598;2023-07-13T00:09:48;25.74;44.45
76384;SHT30;65204;48.606;7.598;2023-07-13T00:10:18;25.70;44.51
76384;SHT30;65204;48.606;7.598;2023-07-13T00:10:51;25.69;44.53
76384;SHT30;65204;48.606;7.598;2023-07-13T00:11:24;25.69;44.58
76384;SHT30;65204;48.606;7.598;2023-07-13T00:11:56;25.67;44.60
76384;SHT30;65204;48.606;7.598;2023-07-13T00:12:33;25.65;44.66
76384;SHT30;65204;48.606;7.598;2023-07-13T00:13:03;25.63;44.74
76384;SHT30;65204;48.606;7.598;2023-07-13T00:13:34;25.66;44.69
76384;SHT30;65204;48.606;7.598;2023-07-13T00:14:04;25.65;44.68
76384;SHT30;65204;48.606;7.598;2023-07-13T00:14:35;25.66;44.67
76384;SHT30;65204;48.606;7.598;2023-07-13T00:15:12;25.62;44.67
76384;SHT30;65204;48.606;7.598;2023-07-13T00:15:42;25.62;44.71
76384;SHT30;65204;48.606;7.598;2023-07-13T00:16:13;25.60;44.70
76384;SHT30;65204;48.606;7.598;2023-07-13T00:16:44;25.62;44.65
76384;SHT30;65204;48.606;7.598;2023-07-13T00:17:14;25.62;44.71
76384;SHT30;65204;48.606;7.598;2023-07-13T00:17:44;25.60;44.63
76384;SHT30;65204;48.606;7.598;2023-07-13T00:18:14;25.62;44.57
76384;SHT30;65204;48.606;7.598;2023-07-13T00:18:46;25.59;44.65
76384;SHT30;65204;48.606;7.598;2023-07-13T00:19:17;25.59;44.68
76384;SHT30;65204;48.606;7.598;2023-07-13T00:19:47;25.59;44.68
76384;SHT30;65204;48.606;7.598;2023-07-13T00:20:19;25.62;44.65
76384;SHT30;65204;48.606;7.598;2023-07-13T00:20:51;25.62;44.63
76384;SHT30;65204;48.606;7.598;2023-07-13T00:21:22;25.62;44.63
76384;SHT30;65204;48.606;7.598;2023-07-13T00:21:52;25.62;44.60
76384;SHT30;65204;48.606;7.598;2023-07-13T00:22:25;25.58;44.57
76384;SHT30;65204;48.606;7.598;2023-07-13T00:22:56;25.60;44.58
76384;SHT30;65204;48.606;7.598;2023-07-13T00:23:26;25.56;44.60
76384;SHT30;65204;48.606;7.598;2023-07-13T00:23:57;25.56;44.59
76384;SHT30;65204;48.606;7.598;2023-07-13T00:24:27;25.56;44.63
76384;SHT30;65204;48.606;7.598;2023-07-13T00:24:58;25.58;44.68
76384;SHT30;65204;48.606;7.598;2023-07-13T00:25:29;25.52;44.65
76384;SHT30;65204;48.606;7.598;2023-07-13T00:26:00;25.52;44.65
76384;SHT30;65204;48.606;7.598;2023-07-13T00:26:31;25.52;44.69
76384;SHT30;65204;48.606;7.598;2023-07-13T00:27:05;25.49;44.77
76384;SHT30;65204;48.606;7.598;2023-07-13T00:27:35;25.46;44.85
76384;SHT30;65204;48.606;7.598;2023-07-13T00:28:06;25.49;44.85
76384;SHT30;65204;48.606;7.598;2023-07-13T00:28:36;25.49;44.88
76384;SHT30;65204;48.606;7.598;2023-07-13T00:29:07;25.49;44.92
76384;SHT30;65204;48.606;7.598;2023-07-13T00:29:39;25.47;44.86
76384;SHT30;65204;48.606;7.598;2023-07-13T00:30:10;25.49;44.79
76384;SHT30;65204;48.606;7.598;2023-07-13T00:30:41;25.49;44.82
76384;SHT30;65204;48.606;7.598;2023-07-13T00:31:12;25.52;44.74
76384;SHT30;65204;48.606;7.598;2023-07-13T00:31:44;25.53;44.73
76384;SHT30;65204;48.606;7.598;2023-07-13T00:32:14;25.52;44.75
76384;SHT30;65204;48.606;7.598;2023-07-13T00:32:45;25.53;44.73
76384;SHT30;65204;48.606;7.598;2023-07-13T00:33:15;25.53;44.71
76384;SHT30;65204;48.606;7.598;2023-07-13T00:33:46;25.53;44.76
76384;SHT30;65204;48.606;7.598;2023-07-13T00:34:16;25.53;44.80
76384;SHT30;65204;48.606;7.598;2023-07-13T00:34:46;25.56;44.76
76384;SHT30;65204;48.606;7.598;2023-07-13T00:35:17;25.58;44.78
76384;SHT30;65204;48.606;7.598;2023-07-13T00:35:47;25.54;44.80
76384;SHT30;65204;48.606;7.598;2023-07-13T00:36:20;25.54;44.85
76384;SHT30;65204;48.606;7.598;2023-07-13T00:36:50;25.54;44.79
76384;SHT30;65204;48.606;7.598;2023-07-13T00:37:21;25.52;44.82
76384;SHT30;65204;48.606;7.598;2023-07-13T00:37:52;25.52;44.81
76384;SHT30;65204;48.606;7.598;2023-07-13T00:38:23;25.52;44.79
76384;SHT30;65204;48.606;7.598;2023-07-13T00:38:54;25.53;44.76
76384;SHT30;65204;48.606;7.598;2023-07-13T00:39:24;25.53;44.71
76384;SHT30;65204;48.606;7.598;2023-07-13T00:39:54;25.54;44.77
76384;SHT30;65204;48.606;7.598;2023-07-13T00:40:25;25.53;44.71
76384;SHT30;65204;48.606;7.598;2023-07-13T00:40:55;25.52;44.72
76384;SHT30;65204;48.606;7.598;2023-07-13T00:41:26;25.53;44.67
76384;SHT30;65204;48.606;7.598;2023-07-13T00:41:56;25.53;44.63
76384;SHT30;65204;48.606;7.598;2023-07-13T00:42:26;25.54;44.59
76384;SHT30;65204;48.606;7.598;2023-07-13T00:42:58;25.53;44.60
76384;SHT30;65204;48.606;7.598;2023-07-13T00:43:29;25.53;44.52
76384;SHT30;65204;48.606;7.598;2023-07-13T00:44:00;25.53;44.53
76384;SHT30;65204;48.606;7.598;2023-07-13T00:44:31;25.50;44.53
76384;SHT30;65204;48.606;7.598;2023-07-13T00:45:02;25.50;44.56
76384;SHT30;65204;48.606;7.598;2023-07-13T00:46:22;25.46;44.63
76384;SHT30;65204;48.606;7.598;2023-07-13T00:46:53;25.39;44.76
76384;SHT30;65204;48.606;7.598;2023-07-13T00:47:25;25.38;44.79
76384;SHT30;65204;48.606;7.598;2023-07-13T00:47:56;25.33;44.87
76384;SHT30;65204;48.606;7.598;2023-07-13T00:48:32;25.28;44.95
76384;SHT30;65204;48.606;7.598;2023-07-13T00:49:06;25.22;44.95
76384;SHT30;65204;48.606;7.598;2023-07-13T00:49:37;25.19;45.05
76384;SHT30;65204;48.606;7.598;2023-07-13T00:50:10;25.22;44.98
76384;SHT30;65204;48.606;7.598;2023-07-13T00:50:41;25.19;45.03
76384;SHT30;65204;48.606;7.598;2023-07-13T00:51:16;25.23;44.99
76384;SHT30;65204;48.606;7.598;2023-07-13T00:51:51;25.25;45.02
76384;SHT30;65204;48.606;7.598;2023-07-13T00:52:23;25.25;45.01
76384;SHT30;65204;48.606;7.598;2023-07-13T00:52:54;25.22;45.01
76384;SHT30;65204;48.606;7.598;2023-07-13T00:53:29;25.23;44.96
76384;SHT30;65204;48.606;7.598;2023-07-13T00:54:03;25.22;45.03
76384;SHT30;65204;48.606;7.598;2023-07-13T00:54:41;25.16;45.26
76384;SHT30;65204;48.606;7.598;2023-07-13T00:55:14;25.15;45.20
76384;SHT30;65204;48.606;7.598;2023-07-13T00:55:47;25.16;45.28
76384;SHT30;65204;48.606;7.598;2023-07-13T00:56:18;25.18;45.26
76384;SHT30;65204;48.606;7.598;2023-07-13T00:56:51;25.15;45.35
76384;SHT30;65204;48.606;7.598;2023-07-13T00:57:23;25.12;45.32
76384;SHT30;65204;48.606;7.598;2023-07-13T00:57:55;25.15;45.37
76384;SHT30;65204;48.606;7.598;2023-07-13T00:58:26;25.15;45.35
76384;SHT30;65204;48.606;7.598;2023-07-13T00:58:59;25.14;45.38
76384;SHT30;65204;48.606;7.598;2023-07-13T00:59:31;25.12;45.34
76384;SHT30;65204;48.606;7.598;2023-07-13T01:00:04;25.11;45.37
76384;SHT30;65204;48.606;7.598;2023-07-13T01:00:38;25.09;45.42
76384;SHT30;65204;48.606;7.598;2023-07-13T01:01:08;25.11;45.36
76384;SHT30;65204;48.606;7.598;2023-07-13T01:01:39;25.12;45.37
76384;SHT30;65204;48.606;7.598;2023-07-13T01:02:10;25.12;45.34
76384;SHT30;65204;48.606;7.598;2023-07-13T01:02:44;25.14;45.38
76384;SHT30;65204;48.606;7.598;2023-07-13T01:03:15;25.11;45.37
76384;SHT30;65204;48.606;7.598;2023-07-13T01:03:45;25.07;45.46
76384;SHT30;65204;48.606;7.598;2023-07-13T01:04:17;25.09;45.48
76384;SHT30;65204;48.606;7.598;2023-07-13T01:04:48;25.07;45.51
76384;SHT30;65204;48.606;7.598;2023-07-13T01:05:20;25.05;45.53
76384;SHT30;65204;48.606;7.598;2023-07-13T01:05:51;25.02;45.62
76384;SHT30;65204;48.606;7.598;2023-07-13T01:06:24;24.99;45.70
76384;SHT30;65204;48.606;7.598;2023-07-13T01:06:54;24.98;45.71
76384;SHT30;65204;48.606;7.598;2023-07-13T01:07:26;24.99;45.75
76384;SHT30;65204;48.606;7.598;2023-07-13T01:07:56;24.98;45.81
76384;SHT30;65204;48.606;7.598;2023-07-13T01:08:26;25.02;45.81
76384;SHT30;65204;48.606;7.598;2023-07-13T01:08:58;25.01;45.85
76384;SHT30;65204;48.606;7.598;2023-07-13T01:09:29;25.01;45.82
76384;SHT30;65204;48.606;7.598;2023-07-13T01:09:59;25.05;45.83
76384;SHT30;65204;48.606;7.598;2023-07-13T01:10:29;25.07;45.78
76384;SHT30;65204;48.606;7.598;2023-07-13T01:11:08;25.02;45.76
76384;SHT30;65204;48.606;7.598;2023-07-13T01:11:39;25.05;45.71
76384;SHT30;65204;48.606;7.598;2023-07-13T01:12:11;25.09;45.66
76384;SHT30;65204;48.606;7.598;2023-07-13T01:12:41;25.12;45.64
76384;SHT30;65204;48.606;7.598;2023-07-13T01:13:12;25.14;45.63
76384;SHT30;65204;48.606;7.598;2023-07-13T01:13:42;25.14;45.63
76384;SHT30;65204;48.606;7.598;2023-07-13T01:14:13;25.16;45.60
76384;SHT30;65204;48.606;7.598;2023-07-13T01:14:44;25.16;45.62
76384;SHT30;65204;48.606;7.598;2023-07-13T01:15:43;25.09;45.73
76384;SHT30;65204;48.606;7.598;2023-07-13T01:16:24;25.12;45.58
76384;SHT30;65204;48.606;7.598;2023-07-13T01:16:55;25.12;45.61
76384;SHT30;65204;48.606;7.598;2023-07-13T01:17:27;25.16;45.53
76384;SHT30;65204;48.606;7.598;2023-07-13T01:17:58;25.18;45.49
76384;SHT30;65204;48.606;7.598;2023-07-13T01:18:29;25.16;45.46
76384;SHT30;65204;48.606;7.598;2023-07-13T01:19:00;25.21;45.49
76384;SHT30;65204;48.606;7.598;2023-07-13T01:19:42;25.21;45.44
76384;SHT30;65204;48.606;7.598;2023-07-13T01:20:13;25.25;45.39
76384;SHT30;65204;48.606;7.598;2023-07-13T01:20:55;25.25;45.35
76384;SHT30;65204;48.606;7.598;2023-07-13T01:21:28;25.26;45.34
76384;SHT30;65204;48.606;7.598;2023-07-13T01:22:00;25.29;45.32
76384;SHT30;65204;48.606;7.598;2023-07-13T01:22:30;25.32;45.25
76384;SHT30;65204;48.606;7.598;2023-07-13T01:23:07;25.33;45.16
76384;SHT30;65204;48.606;7.598;2023-07-13T01:23:37;25.36;45.19
76384;SHT30;65204;48.606;7.598;2023-07-13T01:24:09;25.39;45.15
76384;SHT30;65204;48.606;7.598;2023-07-13T01:24:42;25.42;45.14
76384;SHT30;65204;48.606;7.598;2023-07-13T01:25:15;25.43;45.12
76384;SHT30;65204;48.606;7.598;2023-07-13T01:25:45;25.43;45.12
76384;SHT30;65204;48.606;7.598;2023-07-13T01:26:16;25.45;45.09
76384;SHT30;65204;48.606;7.598;2023-07-13T01:26:46;25.45;45.07
76384;SHT30;65204;48.606;7.598;2023-07-13T01:27:21;25.46;45.03
76384;SHT30;65204;48.606;7.598;2023-07-13T01:27:53;25.46;45.12
76384;SHT30;65204;48.606;7.598;2023-07-13T01:28:24;25.49;45.05
76384;SHT30;65204;48.606;7.598;2023-07-13T01:28:56;25.49;45.05
76384;SHT30;65204;48.606;7.598;2023-07-13T01:29:27;25.49;45.11
76384;SHT30;65204;48.606;7.598;2023-07-13T01:29:57;25.50;45.07
76384;SHT30;65204;48.606;7.598;2023-07-13T01:30:33;25.49;45.12
76384;SHT30;65204;48.606;7.598;2023-07-13T01:31:04;25.50;45.17
76384;SHT30;65204;48.606;7.598;2023-07-13T01:31:34;25.50;45.16
76384;SHT30;65204;48.606;7.598;2023-07-13T01:32:05;25.49;45.19
76384;SHT30;65204;48.606;7.598;2023-07-13T01:32:38;25.50;45.22
76384;SHT30;65204;48.606;7.598;2023-07-13T01:33:17;25.47;45.28
76384;SHT30;65204;48.606;7.598;2023-07-13T01:33:48;25.47;45.25
76384;SHT30;65204;48.606;7.598;2023-07-13T01:34:18;25.49;45.23
76384;SHT30;65204;48.606;7.598;2023-07-13T01:34:52;25.49;45.24
76384;SHT30;65204;48.606;7.598;2023-07-13T01:35:24;25.47;45.25
76384;SHT30;65204;48.606;7.598;2023-07-13T01:35:57;25.49;45.24
76384;SHT30;65204;48.606;7.598;2023-07-13T01:36:27;25.49;45.23
76384;SHT30;65204;48.606;7.598;2023-07-13T01:36:57;25.49;45.31
76384;SHT30;65204;48.606;7.598;2023-07-13T01:37:28;25.45;45.25
76384;SHT30;65204;48.606;7.598;2023-07-13T01:38:04;25.47;45.32
76384;SHT30;65204;48.606;7.598;2023-07-13T01:38:35;25.46;45.36
76384;SHT30;65204;48.606;7.598;2023-07-13T01:39:05;25.46;45.33
76384;SHT30;65204;48.606;7.598;2023-07-13T01:39:36;25.45;45.37
76384;SHT30;65204;48.606;7.598;2023-07-13T01:40:08;25.45;45.39
76384;SHT30;65204;48.606;7.598;2023-07-13T01:40:39;25.46;45.38
76384;SHT30;65204;48.606;7.598;2023-07-13T01:41:09;25.42;45.40
76384;SHT30;65204;48.606;7.598;2023-07-13T01:41:40;25.45;45.40
76384;SHT30;65204;48.606;7.598;2023-07-13T01:42:10;25.42;45.45
76384;SHT30;65204;48.606;7.598;2023-07-13T01:42:41;25.43;45.41
76384;SHT30;65204;48.606;7.598;2023-07-13T01:43:11;25.42;45.48
76384;SHT30;65204;48.606;7.598;2023-07-13T01:43:42;25.38;45.49
76384;SHT30;65204;48.606;7.598;2023-07-13T01:44:12;25.41;45.48
76384;SHT30;65204;48.606;7.598;2023-07-13T01:44:42;25.38;45.47
76384;SHT30;65204;48.606;7.598;2023-07-13T01:45:13;25.38;45.47
76384;SHT30;65204;48.606;7.598;2023-07-13T01:45:44;25.39;45.43
76384;SHT30;65204;48.606;7.598;2023-07-13T01:46:14;25.38;45.46
76384;SHT30;65204;48.606;7.598;2023-07-13T01:46:45;25.39;45.42
76384;SHT30;65204;48.606;7.598;2023-07-13T01:47:16;25.38;45.45
76384;SHT30;65204;48.606;7.598;2023-07-13T01:47:46;25.36;45.50
76384;SHT30;65204;48.606;7.598;2023-07-13T01:48:16;25.36;45.48
76384;SHT30;65204;48.606;7.598;2023-07-13T01:48:47;25.32;45.51
76384;SHT30;65204;48.606;7.598;2023-07-13T01:49:17;25.36;45.55
76384;SHT30;65204;48.606;7.598;2023-07-13T01:49:47;25.31;45.59
76384;SHT30;65204;48.606;7.598;2023-07-13T01:50:18;25.26;45.70
76384;SHT30;65204;48.606;7.598;2023-07-13T01:50:48;25.25;45.68
76384;SHT30;65204;48.606;7.598;2023-07-13T01:51:20;25.22;45.73
76384;SHT30;65204;48.606;7.598;2023-07-13T01:51:50;25.21;45.78
76384;SHT30;65204;48.606;7.598;2023-07-13T01:52:21;25.19;45.80
76384;SHT30;65204;48.606;7.598;2023-07-13T01:52:51;25.18;45.75
76384;SHT30;65204;48.606;7.598;2023-07-13T01:53:22;25.18;45.83
76384;SHT30;65204;48.606;7.598;2023-07-13T01:53:52;25.15;45.83
76384;SHT30;65204;48.606;7.598;2023-07-13T01:54:22;25.15;45.88
76384;SHT30;65204;48.606;7.598;2023-07-13T01:54:53;25.12;45.87
76384;SHT30;65204;48.606;7.598;2023-07-13T01:55:24;25.14;45.78
76384;SHT30;65204;48.606;7.598;2023-07-13T01:55:54;25.11;45.83
76384;SHT30;65204;48.606;7.598;2023-07-13T01:56:24;25.12;45.83
76384;SHT30;65204;48.606;7.598;2023-07-13T01:56:55;25.11;45.86
76384;SHT30;65204;48.606;7.598;2023-07-13T01:57:25;25.08;45.86
76384;SHT30;65204;48.606;7.598;2023-07-13T01:57:56;25.08;45.86
76384;SHT30;65204;48.606;7.598;2023-07-13T01:58:26;25.07;45.89
76384;SHT30;65204;48.606;7.598;2023-07-13T01:58:57;25.07;45.93
76384;SHT30;65204;48.606;7.598;2023-07-13T01:59:27;25.05;45.92
76384;SHT30;65204;48.606;7.598;2023-07-13T01:59:58;25.02;46.01
76384;SHT30;65204;48.606;7.598;2023-07-13T02:00:28;24.99;46.02
76384;SHT30;65204;48.606;7.598;2023-07-13T02:00:59;25.01;46.04
76384;SHT30;65204;48.606;7.598;2023-07-13T02:01:29;24.95;46.10
76384;SHT30;65204;48.606;7.598;2023-07-13T02:01:59;24.95;46.04
76384;SHT30;65204;48.606;7.598;2023-07-13T02:02:30;24.92;46.04
76384;SHT30;65204;48.606;7.598;2023-07-13T02:03:01;24.92;46.08
76384;SHT30;65204;48.606;7.598;2023-07-13T02:03:31;24.90;46.09
76384;SHT30;65204;48.606;7.598;2023-07-13T02:04:02;24.90;46.13
76384;SHT30;65204;48.606;7.598;2023-07-13T02:04:34;24.87;46.14
76384;SHT30;65204;48.606;7.598;2023-07-13T02:05:05;24.85;46.14
76384;SHT30;65204;48.606;7.598;2023-07-13T02:05:36;24.85;46.12
76384;SHT30;65204;48.606;7.598;2023-07-13T02:06:06;24.85;46.09
76384;SHT30;65204;48.606;7.598;2023-07-13T02:06:36;24.85;46.12
76384;SHT30;65204;48.606;7.598;2023-07-13T02:07:08;24.85;46.09
76384;SHT30;65204;48.606;7.598;2023-07-13T02:07:39;24.85;46.02
76384;SHT30;65204;48.606;7.598;2023-07-13T02:08:10;24.88;46.03
76384;SHT30;65204;48.606;7.598;2023-07-13T02:08:41;24.85;46.03
76384;SHT30;65204;48.606;7.598;2023-07-13T02:09:12;24.88;46.01
76384;SHT30;65204;48.606;7.598;2023-07-13T02:09:43;24.91;46.00
76384;SHT30;65204;48.606;7.598;2023-07-13T02:10:13;24.88;45.94
76384;SHT30;65204;48.606;7.598;2023-07-13T02:10:46;24.90;45.85
76384;SHT30;65204;48.606;7.598;2023-07-13T02:11:16;24.90;45.89
76384;SHT30;65204;48.606;7.598;2023-07-13T02:11:47;24.91;45.91
76384;SHT30;65204;48.606;7.598;2023-07-13T02:12:18;24.90;45.90
76384;SHT30;65204;48.606;7.598;2023-07-13T02:12:49;24.91;45.90
76384;SHT30;65204;48.606;7.598;2023-07-13T02:13:20;24.91;45.92
76384;SHT30;65204;48.606;7.598;2023-07-13T02:13:51;24.90;45.91
76384;SHT30;65204;48.606;7.598;2023-07-13T02:14:22;24.88;45.89
76384;SHT30;65204;48.606;7.598;2023-07-13T02:14:52;24.90;45.86
76384;SHT30;65204;48.606;7.598;2023-07-13T02:15:22;24.88;45.89
76384;SHT30;65204;48.606;7.598;2023-07-13T02:15:53;24.87;45.93
76384;SHT30;65204;48.606;7.598;2023-07-13T02:16:23;24.85;45.92
76384;SHT30;65204;48.606;7.598;2023-07-13T02:16:53;24.84;45.91
76384;SHT30;65204;48.606;7.598;2023-07-13T02:17:24;24.84;45.95
76384;SHT30;65204;48.606;7.598;2023-07-13T02:17:54;24.82;45.94
76384;SHT30;65204;48.606;7.598;2023-07-13T02:18:24;24.82;45.88
76384;SHT30;65204;48.606;7.598;2023-07-13T02:18:55;24.82;45.89
76384;SHT30;65204;48.606;7.598;2023-07-13T02:19:25;24.80;45.94
76384;SHT30;65204;48.606;7.598;2023-07-13T02:19:56;24.78;45.99
76384;SHT30;65204;48.606;7.598;2023-07-13T02:20:26;24.78;45.96
76384;SHT30;65204;48.606;7.598;2023-07-13T02:20:56;24.77;45.97
76384;SHT30;65204;48.606;7.598;2023-07-13T02:21:27;24.77;45.97
76384;SHT30;65204;48.606;7.598;2023-07-13T02:21:57;24.77;45.99
76384;SHT30;65204;48.606;7.598;2023-07-13T02:22:28;24.74;46.01
76384;SHT30;65204;48.606;7.598;2023-07-13T02:22:58;24.75;46.01
76384;SHT30;65204;48.606;7.598;2023-07-13T02:23:28;24.74;46.04
76384;SHT30;65204;48.606;7.598;2023-07-13T02:23:59;24.71;46.05
76384;SHT30;65204;48.606;7.598;2023-07-13T02:24:30;24.71;46.04
76384;SHT30;65204;48.606;7.598;2023-07-13T02:25:00;24.70;46.05
76384;SHT30;65204;48.606;7.598;2023-07-13T02:25:31;24.70;46.03
76384;SHT30;65204;48.606;7.598;2023-07-13T02:26:03;24.67;46.06
76384;SHT30;65204;48.606;7.598;2023-07-13T02:26:34;24.67;46.16
76384;SHT30;65204;48.606;7.598;2023-07-13T02:27:05;24.65;46.26
76384;SHT30;65204;48.606;7.598;2023-07-13T02:27:35;24.61;46.25
76384;SHT30;65204;48.606;7.598;2023-07-13T02:28:05;24.60;46.22
76384;SHT30;65204;48.606;7.598;2023-07-13T02:28:36;24.60;46.23
76384;SHT30;65204;48.606;7.598;2023-07-13T02:29:06;24.57;46.26
76384;SHT30;65204;48.606;7.598;2023-07-13T02:29:36;24.54;46.32
76384;SHT30;65204;48.606;7.598;2023-07-13T02:30:07;24.51;46.46
76384;SHT30;65204;48.606;7.598;2023-07-13T02:30:38;24.44;46.51
76384;SHT30;65204;48.606;7.598;2023-07-13T02:31:12;24.44;46.45
76384;SHT30;65204;48.606;7.598;2023-07-13T02:31:43;24.41;46.51
76384;SHT30;65204;48.606;7.598;2023-07-13T02:32:13;24.38;46.57
76384;SHT30;65204;48.606;7.598;2023-07-13T02:32:43;24.37;46.62
76384;SHT30;65204;48.606;7.598;2023-07-13T02:33:14;24.36;46.66
76384;SHT30;65204;48.606;7.598;2023-07-13T02:33:45;24.33;46.70
76384;SHT30;65204;48.606;7.598;2023-07-13T02:34:15;24.30;46.76
76384;SHT30;65204;48.606;7.598;2023-07-13T02:34:46;24.30;46.87
76384;SHT30;65204;48.606;7.598;2023-07-13T02:35:16;24.26;46.90
76384;SHT30;65204;48.606;7.598;2023-07-13T02:35:46;24.23;47.00
76384;SHT30;65204;48.606;7.598;2023-07-13T02:36:17;24.23;47.11
76384;SHT30;65204;48.606;7.598;2023-07-13T02:36:48;24.21;47.18
76384;SHT30;65204;48.606;7.598;2023-07-13T02:37:19;24.24;47.25
76384;SHT30;65204;48.606;7.598;2023-07-13T02:37:49;24.24;47.29
76384;SHT30;65204;48.606;7.598;2023-07-13T02:38:20;24.23;47.37
76384;SHT30;65204;48.606;7.598;2023-07-13T02:38:50;24.21;47.49
76384;SHT30;65204;48.606;7.598;2023-07-13T02:39:21;24.23;47.47
76384;SHT30;65204;48.606;7.598;2023-07-13T02:39:51;24.23;47.47
76384;SHT30;65204;48.606;7.598;2023-07-13T02:40:22;24.21;47.47
76384;SHT30;65204;48.606;7.598;2023-07-13T02:40:53;24.20;47.43
76384;SHT30;65204;48.606;7.598;2023-07-13T02:41:23;24.21;47.35
76384;SHT30;65204;48.606;7.598;2023-07-13T02:41:53;24.17;47.37
76384;SHT30;65204;48.606;7.598;2023-07-13T02:42:24;24.19;47.60
76384;SHT30;65204;48.606;7.598;2023-07-13T02:42:54;24.14;47.75
76384;SHT30;65204;48.606;7.598;2023-07-13T02:43:24;24.14;47.79
76384;SHT30;65204;48.606;7.598;2023-07-13T02:43:55;24.16;47.72
76384;SHT30;65204;48.606;7.598;2023-07-13T02:44:32;24.12;47.56
76384;SHT30;65204;48.606;7.598;2023-07-13T02:45:03;24.13;47.55
76384;SHT30;65204;48.606;7.598;2023-07-13T02:45:33;24.09;47.56
76384;SHT30;65204;48.606;7.598;2023-07-13T02:46:04;24.07;47.52
76384;SHT30;65204;48.606;7.598;2023-07-13T02:46:37;24.07;47.53
76384;SHT30;65204;48.606;7.598;2023-07-13T02:47:08;24.06;47.64
76384;SHT30;65204;48.606;7.598;2023-07-13T02:47:39;24.07;47.74
76384;SHT30;65204;48.606;7.598;2023-07-13T02:48:09;24.03;47.74
76384;SHT30;65204;48.606;7.598;2023-07-13T02:48:40;24.05;47.70
76384;SHT30;65204;48.606;7.598;2023-07-13T02:49:10;24.05;47.73
76384;SHT30;65204;48.606;7.598;2023-07-13T02:49:41;24.05;47.74
76384;SHT30;65204;48.606;7.598;2023-07-13T02:50:11;24.05;47.75
76384;SHT30;65204;48.606;7.598;2023-07-13T02:50:41;24.03;47.80
76384;SHT30;65204;48.606;7.598;2023-07-13T02:51:12;24.00;47.76
76384;SHT30;65204;48.606;7.598;2023-07-13T02:51:42;24.02;47.79
76384;SHT30;65204;48.606;7.598;2023-07-13T02:52:12;23.97;47.82
76384;SHT30;65204;48.606;7.598;2023-07-13T02:52:43;23.96;47.88
76384;SHT30;65204;48.606;7.598;2023-07-13T02:53:13;23.95;47.93
76384;SHT30;65204;48.606;7.598;2023-07-13T02:53:43;23.99;47.94
76384;SHT30;65204;48.606;7.598;2023-07-13T02:54:14;23.95;47.94
76384;SHT30;65204;48.606;7.598;2023-07-13T02:54:44;23.97;47.94
76384;SHT30;65204;48.606;7.598;2023-07-13T02:55:14;23.96;47.90
76384;SHT30;65204;48.606;7.598;2023-07-13T02:55:45;23.95;47.92
76384;SHT30;65204;48.606;7.598;2023-07-13T02:56:21;23.96;47.90
76384;SHT30;65204;48.606;7.598;2023-07-13T02:56:52;23.96;47.98
76384;SHT30;65204;48.606;7.598;2023-07-13T02:57:22;23.95;47.97
76384;SHT30;65204;48.606;7.598;2023-07-13T02:57:53;23.93;48.04
76384;SHT30;65204;48.606;7.598;2023-07-13T02:58:24;23.96;47.98
76384;SHT30;65204;48.606;7.598;2023-07-13T02:58:54;23.93;47.96
76384;SHT30;65204;48.606;7.598;2023-07-13T02:59:25;23.92;48.00
76384;SHT30;65204;48.606;7.598;2023-07-13T02:59:55;23.92;48.00
76384;SHT30;65204;48.606;7.598;2023-07-13T03:00:25;23.89;48.03
76384;SHT30;65204;48.606;7.598;2023-07-13T03:00:56;23.87;48.03
76384;SHT30;65204;48.606;7.598;2023-07-13T03:01:27;23.89;48.12
76384;SHT30;65204;48.606;7.598;2023-07-13T03:01:58;23.89;48.14
76384;SHT30;65204;48.606;7.598;2023-07-13T03:02:28;23.87;48.14
76384;SHT30;65204;48.606;7.598;2023-07-13T03:02:58;23.86;48.21
76384;SHT30;65204;48.606;7.598;2023-07-13T03:03:29;23.86;48.28
76384;SHT30;65204;48.606;7.598;2023-07-13T03:03:59;23.80;48.30
76384;SHT30;65204;48.606;7.598;2023-07-13T03:04:29;23.80;48.51
76384;SHT30;65204;48.606;7.598;2023-07-13T03:05:00;23.78;48.63
76384;SHT30;65204;48.606;7.598;2023-07-13T03:05:30;23.76;48.69
76384;SHT30;65204;48.606;7.598;2023-07-13T03:06:02;23.73;48.76
76384;SHT30;65204;48.606;7.598;2023-07-13T03:06:33;23.73;48.78
76384;SHT30;65204;48.606;7.598;2023-07-13T03:07:04;23.73;48.81
76384;SHT30;65204;48.606;7.598;2023-07-13T03:07:34;23.72;48.78
76384;SHT30;65204;48.606;7.598;2023-07-13T03:08:05;23.69;48.82
76384;SHT30;65204;48.606;7.598;2023-07-13T03:08:36;23.73;48.86
76384;SHT30;65204;48.606;7.598;2023-07-13T03:09:06;23.72;48.77
76384;SHT30;65204;48.606;7.598;2023-07-13T03:09:38;23.72;48.80
76384;SHT30;65204;48.606;7.598;2023-07-13T03:10:08;23.72;48.80
76384;SHT30;65204;48.606;7.598;2023-07-13T03:10:39;23.72;48.78
76384;SHT30;65204;48.606;7.598;2023-07-13T03:11:14;23.73;48.76
76384;SHT30;65204;48.606;7.598;2023-07-13T03:11:45;23.72;48.78
76384;SHT30;65204;48.606;7.598;2023-07-13T03:12:15;23.69;48.74
76384;SHT30;65204;48.606;7.598;2023-07-13T03:12:45;23.69;48.83
76384;SHT30;65204;48.606;7.598;2023-07-13T03:13:16;23.68;48.87
76384;SHT30;65204;48.606;7.598;2023-07-13T03:13:46;23.68;49.21
76384;SHT30;65204;48.606;7.598;2023-07-13T03:14:17;23.63;49.45
76384;SHT30;65204;48.606;7.598;2023-07-13T03:14:47;23.63;49.62
76384;SHT30;65204;48.606;7.598;2023-07-13T03:15:17;23.61;49.89
76384;SHT30;65204;48.606;7.598;2023-07-13T03:15:48;23.59;50.09
76384;SHT30;65204;48.606;7.598;2023-07-13T03:16:19;23.55;50.03
76384;SHT30;65204;48.606;7.598;2023-07-13T03:16:49;23.56;49.89
76384;SHT30;65204;48.606;7.598;2023-07-13T03:17:20;23.54;49.76
76384;SHT30;65204;48.606;7.598;2023-07-13T03:17:50;23.54;49.77
76384;SHT30;65204;48.606;7.598;2023-07-13T03:18:20;23.54;50.04